Shuangcheng, China
Current Conditions -  °F | °C
As of 12:00 PM on Monday 20 Oct 2014 (Local Time) from ZYHB Reporting Station
Clear Clear  
Wind Chill: 30°   Ceiling: Unl
Heat Index: 39°   Visibility: 6mi
Dew Point:   Wind: 18mph
Humidity: 26%   Direction: 320°NW
Pressure: 30.21"   Gusts: NA
Location:  45.35°N, 126.28°E
Report Text: ZYHB 200400Z 32008MPS CAVOK 04/M14 Q1023 NOSIG
Loading
Personal Weather Stations






























Interactive Weather Map
Tropical Storm Tracking
New forecast layout! Learn more

10-Day Weather Forecast

Advertisements
Track Severe Weather on mobile